Time;durP1;ratioP1;P1;durP2;ratioP2;P2;SDS_P1;SDS_P2;PMS_P1;PMS_P2;Temp;Humidity;BMP_temperature;BMP_pressure;BME280_temperature;BME280_humidity;BME280_pressure;Samples;Min_cycle;Max_cycle;Signal;HPM_P1;HPM_P2
2021/07/20 00:00:25;;;;;;;;;;;15.90;99.90;;;;;;5069720;28;20380;-85
2021/07/20 00:02:52;;;;;;;;;;;15.90;99.90;;;;;;5054239;28;19928;-84
2021/07/20 00:05:21;;;;;;;;;;;15.90;99.90;;;;;;5053594;28;19921;-85
2021/07/20 00:07:48;;;;;;;;;;;15.90;99.90;;;;;;5054155;28;19928;-85
2021/07/20 00:10:21;;;;;;;;;;;15.90;99.90;;;;;;5069864;28;19928;-85
2021/07/20 00:12:46;;;;;;;;;;;15.90;99.90;;;;;;5054274;28;19933;-85
2021/07/20 00:15:12;;;;;;;;;;;15.90;99.90;;;;;;5054937;28;19970;-84
2021/07/20 00:17:42;;;;;;;;;;;15.90;99.90;;;;;;5054016;28;19924;-84
2021/07/20 00:20:09;;;;;;;;;;;15.90;99.90;;;;;;5053838;28;20395;-84
2021/07/20 00:22:34;;;;;;;;;;;15.90;99.90;;;;;;5054402;28;20432;-85
2021/07/20 00:25:00;;;;;;;;;;;15.90;99.90;;;;;;5053152;28;20004;-85
2021/07/20 00:27:26;;;;;;;;;;;15.90;99.90;;;;;;5062544;28;20297;-84
2021/07/20 00:29:52;;;;;;;;;;;15.90;99.90;;;;;;5053233;28;19955;-84
2021/07/20 00:32:18;;;;;;;;;;;15.90;99.90;;;;;;5053463;28;20498;-84
2021/07/20 00:34:43;;;;;;;;;;;15.90;99.90;;;;;;5055118;28;19947;-85
2021/07/20 00:37:09;;;;;;;;;;;15.90;99.90;;;;;;5070066;28;19928;-84
2021/07/20 00:39:35;;;;;;;;;;;15.80;99.90;;;;;;5034016;28;19929;-84
2021/07/20 00:42:01;;;;;;;;;;;15.90;99.90;;;;;;5053326;28;19925;-86
2021/07/20 00:44:27;;;;;;;;;;;15.90;99.90;;;;;;5055182;28;19928;-85
2021/07/20 00:46:53;;;;;;;;;;;15.90;99.90;;;;;;5055193;28;19932;-84
2021/07/20 00:49:19;;;;;;;;;;;15.80;99.90;;;;;;5054786;28;19954;-85
2021/07/20 00:51:45;;;;;;;;;;;15.80;99.90;;;;;;5059240;28;19929;-85
2021/07/20 00:54:11;;;;;;;;;;;15.90;99.90;;;;;;5070880;28;19940;-85
2021/07/20 00:56:36;;;;;;;;;;;15.80;99.90;;;;;;5072999;28;19928;-85
2021/07/20 00:59:04;;;;;;;;;;;15.80;99.90;;;;;;5054915;28;19928;-85
2021/07/20 01:01:30;;;;;;;;;;;15.80;99.90;;;;;;5054995;28;19951;-84
2021/07/20 01:03:56;;;;;;;;;;;15.80;99.90;;;;;;5068372;28;20003;-85
2021/07/20 01:06:23;;;;;;;;;;;15.80;99.90;;;;;;5069415;28;19920;-85
2021/07/20 01:08:50;;;;;;;;;;;15.80;99.90;;;;;;5070046;28;19956;-84
2021/07/20 01:11:16;;;;;;;;;;;15.80;99.90;;;;;;5028088;28;19929;-85
2021/07/20 01:13:42;;;;;;;;;;;15.80;99.90;;;;;;5059851;28;20338;-84
2021/07/20 01:16:08;;;;;;;;;;;15.80;99.90;;;;;;5068939;28;20300;-84
2021/07/20 01:18:34;;;;;;;;;;;15.80;99.90;;;;;;5064051;28;19962;-84
2021/07/20 01:21:01;;;;;;;;;;;15.80;99.90;;;;;;5057195;28;19940;-84
2021/07/20 01:23:36;;;;;;;;;;;15.80;99.90;;;;;;5058784;28;19928;-85
2021/07/20 01:26:02;;;;;;;;;;;15.70;99.90;;;;;;5073705;28;20304;-86
2021/07/20 01:28:28;;;;;;;;;;;15.70;99.90;;;;;;5066986;28;19925;-84
2021/07/20 01:30:56;;;;;;;;;;;15.70;99.90;;;;;;5059960;28;19924;-85
2021/07/20 01:33:22;;;;;;;;;;;15.80;99.90;;;;;;5053882;28;20247;-84
2021/07/20 01:35:49;;;;;;;;;;;15.70;99.90;;;;;;5050146;28;19982;-83
2021/07/20 01:38:16;;;;;;;;;;;15.70;99.90;;;;;;5050153;28;19936;-84
2021/07/20 01:40:42;;;;;;;;;;;15.70;99.90;;;;;;5051484;28;19944;-83
2021/07/20 01:43:09;;;;;;;;;;;15.70;99.90;;;;;;5065294;28;19960;-85
2021/07/20 01:45:37;;;;;;;;;;;15.70;99.90;;;;;;5064088;28;19928;-84
2021/07/20 01:48:05;;;;;;;;;;;15.60;99.90;;;;;;5059013;28;19932;-86
2021/07/20 01:50:31;;;;;;;;;;;15.70;99.90;;;;;;5070711;28;20030;-84
2021/07/20 01:52:58;;;;;;;;;;;15.70;99.90;;;;;;5087167;28;19931;-84
2021/07/20 01:55:25;;;;;;;;;;;15.70;99.90;;;;;;5086883;28;20005;-84
2021/07/20 01:57:51;;;;;;;;;;;15.70;99.90;;;;;;5090116;28;19997;-84
2021/07/20 02:00:18;;;;;;;;;;;15.60;99.90;;;;;;5070868;28;20434;-83
2021/07/20 02:02:55;;;;;;;;;;;15.60;99.90;;;;;;5082697;28;20446;-83
2021/07/20 02:08:48;;;;;;;;;;;15.60;99.90;;;;;;5090657;28;19924;-85
2021/07/20 02:11:01;;;;;;;;;;;15.60;99.90;;;;;;5072594;28;19928;-83
2021/07/20 02:13:29;;;;;;;;;;;15.60;99.90;;;;;;5088831;28;19950;-85
2021/07/20 02:15:55;;;;;;;;;;;15.60;99.90;;;;;;5072184;28;19932;-83
2021/07/20 02:18:23;;;;;;;;;;;15.60;99.90;;;;;;5072008;28;19928;-83
2021/07/20 02:20:50;;;;;;;;;;;15.60;99.90;;;;;;5084267;28;20017;-83
2021/07/20 02:23:15;;;;;;;;;;;15.60;99.90;;;;;;5089235;28;19934;-83
2021/07/20 02:25:41;;;;;;;;;;;15.60;99.90;;;;;;5071920;28;19924;-84
2021/07/20 02:28:09;;;;;;;;;;;15.60;99.90;;;;;;5072089;28;19932;-86
2021/07/20 02:30:36;;;;;;;;;;;15.60;99.90;;;;;;5089449;28;19928;-84
2021/07/20 02:33:06;;;;;;;;;;;15.60;99.90;;;;;;5072255;28;19951;-83
2021/07/20 02:35:34;;;;;;;;;;;15.60;99.90;;;;;;5088374;28;19931;-83
2021/07/20 02:38:01;;;;;;;;;;;15.60;99.90;;;;;;5071956;28;20667;-83
2021/07/20 02:40:27;;;;;;;;;;;15.60;99.90;;;;;;5064461;28;19928;-85
2021/07/20 02:42:54;;;;;;;;;;;15.60;99.90;;;;;;5089562;28;19928;-85
2021/07/20 02:45:20;;;;;;;;;;;15.60;99.90;;;;;;5089489;28;19938;-83
2021/07/20 02:47:47;;;;;;;;;;;15.60;99.90;;;;;;5090140;28;20525;-84
2021/07/20 02:50:14;;;;;;;;;;;15.50;99.90;;;;;;5071086;28;19928;-83
2021/07/20 02:52:42;;;;;;;;;;;15.50;99.90;;;;;;5071956;28;19932;-84
2021/07/20 02:55:08;;;;;;;;;;;15.60;99.90;;;;;;5071208;28;19928;-84
2021/07/20 02:57:36;;;;;;;;;;;15.60;99.90;;;;;;5089241;28;19928;-84
2021/07/20 03:00:04;;;;;;;;;;;15.50;99.90;;;;;;5071497;28;19924;-83
2021/07/20 03:02:33;;;;;;;;;;;15.60;99.90;;;;;;5088746;28;19920;-83
2021/07/20 03:04:58;;;;;;;;;;;15.60;99.90;;;;;;5089677;28;20015;-84
2021/07/20 03:07:25;;;;;;;;;;;15.50;99.90;;;;;;5070051;28;20014;-84
2021/07/20 03:09:52;;;;;;;;;;;15.60;99.90;;;;;;5071054;28;19928;-84
2021/07/20 03:12:19;;;;;;;;;;;15.60;99.90;;;;;;5088017;28;19973;-84
2021/07/20 03:14:45;;;;;;;;;;;15.50;99.90;;;;;;5071926;28;20376;-83
2021/07/20 03:17:11;;;;;;;;;;;15.50;99.90;;;;;;5089290;28;19957;-85
2021/07/20 03:19:39;;;;;;;;;;;15.50;99.90;;;;;;5089375;28;19928;-84
2021/07/20 03:22:06;;;;;;;;;;;15.50;99.90;;;;;;5089086;28;20396;-84
2021/07/20 03:24:36;;;;;;;;;;;15.40;99.90;;;;;;5069878;28;19928;-84
2021/07/20 03:27:03;;;;;;;;;;;15.40;99.90;;;;;;5089567;28;19924;-84
2021/07/20 03:29:29;;;;;;;;;;;15.40;99.90;;;;;;5088418;28;20007;-84
2021/07/20 03:31:55;;;;;;;;;;;15.40;99.90;;;;;;5089693;28;19935;-84
2021/07/20 03:34:21;;;;;;;;;;;15.40;99.90;;;;;;5088302;28;19935;-84
2021/07/20 03:36:48;;;;;;;;;;;15.40;99.90;;;;;;5089098;28;19935;-84
2021/07/20 03:39:13;;;;;;;;;;;15.40;99.90;;;;;;5071062;28;19925;-85
2021/07/20 03:41:40;;;;;;;;;;;15.40;99.90;;;;;;5079008;28;19993;-84
2021/07/20 03:44:06;;;;;;;;;;;15.40;99.90;;;;;;5071740;28;19925;-84
2021/07/20 03:46:32;;;;;;;;;;;15.40;99.90;;;;;;5088351;28;20014;-84
2021/07/20 03:48:58;;;;;;;;;;;15.40;99.90;;;;;;5089147;28;20299;-84
2021/07/20 03:51:25;;;;;;;;;;;15.40;99.90;;;;;;5088108;28;19925;-84
2021/07/20 03:53:51;;;;;;;;;;;15.30;99.90;;;;;;5088805;28;20504;-84
2021/07/20 03:56:18;;;;;;;;;;;15.30;99.90;;;;;;5070383;28;20397;-86
2021/07/20 03:58:44;;;;;;;;;;;15.30;99.90;;;;;;5082838;28;19928;-84
2021/07/20 04:01:11;;;;;;;;;;;15.40;99.90;;;;;;5088831;28;19959;-83
2021/07/20 04:03:38;;;;;;;;;;;15.40;99.90;;;;;;5067875;28;19987;-83
2021/07/20 04:06:06;;;;;;;;;;;15.40;99.90;;;;;;5089300;28;20426;-84
2021/07/20 04:08:33;;;;;;;;;;;15.40;99.90;;;;;;5087981;28;20397;-83
2021/07/20 04:11:00;;;;;;;;;;;15.50;99.90;;;;;;5070638;28;19935;-85
2021/07/20 04:13:26;;;;;;;;;;;15.50;99.90;;;;;;5088502;28;19931;-84
2021/07/20 04:15:54;;;;;;;;;;;15.60;99.90;;;;;;5089057;28;19972;-87
2021/07/20 04:18:20;;;;;;;;;;;15.60;99.90;;;;;;5088539;28;19931;-85
2021/07/20 04:20:46;;;;;;;;;;;15.50;99.90;;;;;;5070894;28;19924;-84
2021/07/20 04:23:13;;;;;;;;;;;15.60;99.90;;;;;;5087915;28;19934;-85
2021/07/20 04:25:43;;;;;;;;;;;15.60;99.90;;;;;;5087804;28;19928;-84
2021/07/20 04:28:08;;;;;;;;;;;15.60;99.90;;;;;;5070998;28;19924;-84
2021/07/20 04:30:36;;;;;;;;;;;15.60;99.90;;;;;;5087775;28;19924;-84
2021/07/20 04:33:02;;;;;;;;;;;15.60;99.90;;;;;;5089141;28;19947;-84
2021/07/20 04:35:29;;;;;;;;;;;15.50;99.90;;;;;;5089575;28;19935;-84
2021/07/20 04:37:55;;;;;;;;;;;15.60;99.90;;;;;;5092739;28;19924;-85
2021/07/20 04:40:21;;;;;;;;;;;15.60;99.90;;;;;;5092051;28;20007;-88
2021/07/20 04:42:47;;;;;;;;;;;15.50;99.90;;;;;;5074679;28;20015;-85
2021/07/20 04:45:13;;;;;;;;;;;15.60;99.90;;;;;;5068257;28;19932;-85
2021/07/20 04:47:39;;;;;;;;;;;15.60;99.90;;;;;;5073556;28;19920;-85
2021/07/20 04:50:07;;;;;;;;;;;15.60;99.90;;;;;;5074052;28;19938;-85
2021/07/20 04:52:33;;;;;;;;;;;15.70;99.90;;;;;;5091925;28;20316;-84
2021/07/20 04:54:59;;;;;;;;;;;15.70;99.90;;;;;;5073657;28;19978;-84
2021/07/20 04:57:25;;;;;;;;;;;15.70;99.90;;;;;;5073285;28;19924;-83
2021/07/20 04:59:50;;;;;;;;;;;15.70;99.90;;;;;;5068063;28;19978;-84
2021/07/20 05:02:17;;;;;;;;;;;15.80;99.90;;;;;;5073526;28;19927;-84
2021/07/20 05:04:43;;;;;;;;;;;15.80;99.90;;;;;;5091550;28;20423;-84
2021/07/20 05:07:13;;;;;;;;;;;15.80;99.90;;;;;;5068476;28;20361;-84
2021/07/20 05:09:38;;;;;;;;;;;15.80;99.90;;;;;;5091423;28;19924;-84
2021/07/20 05:12:05;;;;;;;;;;;15.80;99.90;;;;;;5092074;28;19978;-84
2021/07/20 05:14:30;;;;;;;;;;;15.80;99.90;;;;;;5091276;28;19924;-83
2021/07/20 05:16:56;;;;;;;;;;;15.80;99.90;;;;;;5085888;28;19928;-84
2021/07/20 05:19:22;;;;;;;;;;;15.90;99.90;;;;;;5091757;28;19930;-86
2021/07/20 05:21:48;;;;;;;;;;;15.90;99.90;;;;;;5091723;28;19928;-86
2021/07/20 05:24:15;;;;;;;;;;;15.90;99.90;;;;;;5090885;28;19973;-84
2021/07/20 05:26:45;;;;;;;;;;;15.90;99.90;;;;;;5073003;28;19924;-84
2021/07/20 05:29:20;;;;;;;;;;;15.90;99.90;;;;;;5080944;28;19924;-86
2021/07/20 05:31:47;;;;;;;;;;;15.90;99.90;;;;;;5090791;28;19929;-84
2021/07/20 05:34:16;;;;;;;;;;;15.90;99.90;;;;;;5090920;28;19935;-85
2021/07/20 05:36:43;;;;;;;;;;;15.90;99.90;;;;;;5068793;28;19950;-85
2021/07/20 05:39:12;;;;;;;;;;;15.80;99.90;;;;;;5072911;28;20018;-85
2021/07/20 05:41:38;;;;;;;;;;;15.90;99.90;;;;;;5089835;28;20023;-85
2021/07/20 05:44:05;;;;;;;;;;;15.90;99.90;;;;;;5091361;28;19928;-84
2021/07/20 05:46:32;;;;;;;;;;;16.00;99.90;;;;;;5071983;28;20315;-85
2021/07/20 05:48:58;;;;;;;;;;;16.00;99.90;;;;;;5091918;28;19924;-85
2021/07/20 05:51:24;;;;;;;;;;;16.00;99.90;;;;;;5091464;28;19931;-87
2021/07/20 05:53:52;;;;;;;;;;;16.10;99.90;;;;;;5090650;28;19930;-84
2021/07/20 05:56:17;;;;;;;;;;;16.00;99.90;;;;;;5094225;28;19923;-83
2021/07/20 05:58:44;;;;;;;;;;;16.10;99.90;;;;;;5089711;28;20003;-83
2021/07/20 06:01:10;;;;;;;;;;;16.10;99.90;;;;;;5072688;28;19924;-83
2021/07/20 06:03:38;;;;;;;;;;;16.10;99.90;;;;;;5091770;28;19928;-84
2021/07/20 06:06:04;;;;;;;;;;;16.10;99.90;;;;;;5090826;28;19935;-84
2021/07/20 06:08:30;;;;;;;;;;;16.20;99.90;;;;;;5089519;28;19924;-86
2021/07/20 06:10:57;;;;;;;;;;;16.20;99.90;;;;;;5055594;28;19928;-86
2021/07/20 06:13:25;;;;;;;;;;;16.20;99.90;;;;;;5073145;28;20417;-85
2021/07/20 06:15:51;;;;;;;;;;;16.30;99.90;;;;;;5088589;28;19943;-86
2021/07/20 06:18:17;;;;;;;;;;;16.30;99.90;;;;;;5070864;28;19931;-84
2021/07/20 06:20:46;;;;;;;;;;;16.40;99.90;;;;;;5057307;28;20311;-86
2021/07/20 06:23:13;;;;;;;;;;;16.50;99.90;;;;;;5082286;28;19925;-84
2021/07/20 06:25:39;;;;;;;;;;;16.60;99.90;;;;;;5060572;28;20015;-84
2021/07/20 06:28:06;;;;;;;;;;;16.70;99.90;;;;;;5071625;28;19924;-85
2021/07/20 06:30:32;;;;;;;;;;;16.90;99.90;;;;;;5089594;28;19977;-85
2021/07/20 06:32:58;;;;;;;;;;;17.00;99.90;;;;;;5055142;28;20011;-85
2021/07/20 06:35:24;;;;;;;;;;;17.20;99.90;;;;;;5069408;28;19935;-84
2021/07/20 06:37:51;;;;;;;;;;;17.30;99.90;;;;;;5089110;28;19934;-84
2021/07/20 06:40:17;;;;;;;;;;;17.40;99.90;;;;;;5085962;28;19924;-84
2021/07/20 06:42:44;;;;;;;;;;;17.60;99.90;;;;;;5088394;28;19971;-85
2021/07/20 06:45:11;;;;;;;;;;;17.70;99.90;;;;;;5088827;28;19971;-84
2021/07/20 06:47:41;;;;;;;;;;;17.90;99.90;;;;;;5069962;28;19930;-85
2021/07/20 06:50:10;;;;;;;;;;;18.00;99.90;;;;;;5089496;28;19963;-84
2021/07/20 06:52:36;;;;;;;;;;;18.10;99.90;;;;;;5069919;28;19928;-85
2021/07/20 06:55:02;;;;;;;;;;;18.20;99.90;;;;;;5071532;28;20022;-84
2021/07/20 06:57:28;;;;;;;;;;;18.30;99.90;;;;;;5069823;28;19924;-88
2021/07/20 06:59:55;;;;;;;;;;;18.40;99.90;;;;;;5089132;28;19969;-84
2021/07/20 07:02:21;;;;;;;;;;;18.40;99.90;;;;;;5088812;28;19935;-84
2021/07/20 07:04:50;;;;;;;;;;;18.50;99.90;;;;;;5071032;28;19938;-86
2021/07/20 07:07:18;;;;;;;;;;;18.60;99.90;;;;;;5070032;28;19924;-85
2021/07/20 07:09:44;;;;;;;;;;;18.50;99.90;;;;;;5068633;28;19935;-85
2021/07/20 07:12:10;;;;;;;;;;;18.50;99.90;;;;;;5069487;28;20365;-85
2021/07/20 07:14:36;;;;;;;;;;;18.50;99.90;;;;;;5065122;28;19930;-85
2021/07/20 07:17:03;;;;;;;;;;;18.50;99.90;;;;;;5070646;28;19924;-85
2021/07/20 07:19:29;;;;;;;;;;;18.40;99.90;;;;;;5088710;28;19931;-85
2021/07/20 07:21:55;;;;;;;;;;;18.40;99.90;;;;;;5086891;28;19928;-85
2021/07/20 07:24:21;;;;;;;;;;;18.50;99.90;;;;;;5071291;28;19931;-85
2021/07/20 07:26:48;;;;;;;;;;;18.50;99.90;;;;;;5088101;28;19928;-85
2021/07/20 07:29:15;;;;;;;;;;;18.60;99.90;;;;;;5070477;28;19939;-85
2021/07/20 07:31:43;;;;;;;;;;;18.70;99.90;;;;;;5071256;28;20283;-85
2021/07/20 07:34:09;;;;;;;;;;;18.80;99.90;;;;;;5071049;28;19924;-85
2021/07/20 07:36:36;;;;;;;;;;;19.00;99.90;;;;;;5053838;28;20027;-87
2021/07/20 07:39:05;;;;;;;;;;;19.20;99.90;;;;;;5088989;28;19924;-85
2021/07/20 07:41:34;;;;;;;;;;;19.30;99.90;;;;;;5070545;28;19924;-85
2021/07/20 07:44:01;;;;;;;;;;;19.40;99.90;;;;;;5088952;28;19928;-85
2021/07/20 07:46:27;;;;;;;;;;;19.40;99.90;;;;;;5071148;28;20211;-84
2021/07/20 07:48:54;;;;;;;;;;;19.40;99.90;;;;;;5088101;28;19950;-84
2021/07/20 07:51:19;;;;;;;;;;;19.40;99.90;;;;;;5089104;28;20402;-85
2021/07/20 07:53:46;;;;;;;;;;;19.40;99.90;;;;;;5077193;28;19924;-85
2021/07/20 07:56:13;;;;;;;;;;;19.40;99.90;;;;;;5086229;28;19935;-86
2021/07/20 07:58:40;;;;;;;;;;;19.20;99.90;;;;;;5087750;28;19945;-85
2021/07/20 08:01:07;;;;;;;;;;;19.20;99.90;;;;;;5069248;28;19932;-85
2021/07/20 08:03:34;;;;;;;;;;;19.10;99.90;;;;;;5088791;28;19924;-84
2021/07/20 08:06:03;;;;;;;;;;;19.00;99.90;;;;;;5070478;28;19928;-84
2021/07/20 08:08:29;;;;;;;;;;;18.90;99.90;;;;;;5088024;28;19935;-85
2021/07/20 08:10:55;;;;;;;;;;;18.80;99.90;;;;;;5071350;28;20007;-85
2021/07/20 08:13:23;;;;;;;;;;;18.70;99.90;;;;;;5073315;28;19985;-85
2021/07/20 08:15:50;;;;;;;;;;;18.50;99.90;;;;;;5096226;28;19935;-85
2021/07/20 08:18:18;;;;;;;;;;;18.50;99.90;;;;;;5073355;28;20842;-85
2021/07/20 08:20:44;;;;;;;;;;;18.60;99.90;;;;;;5091829;28;20330;-85
2021/07/20 08:23:10;;;;;;;;;;;18.70;99.90;;;;;;5092719;28;19932;-85
2021/07/20 08:25:39;;;;;;;;;;;18.90;99.90;;;;;;5074311;28;19938;-86
2021/07/20 08:28:09;;;;;;;;;;;19.10;99.90;;;;;;5092727;28;19935;-86
2021/07/20 08:30:36;;;;;;;;;;;19.20;99.90;;;;;;5074622;28;19924;-85
2021/07/20 08:33:03;;;;;;;;;;;19.20;99.90;;;;;;5091794;28;19923;-85
2021/07/20 08:35:31;;;;;;;;;;;19.10;99.90;;;;;;5074046;28;19931;-85
2021/07/20 08:38:02;;;;;;;;;;;19.10;99.90;;;;;;5073682;28;20010;-85
2021/07/20 08:40:40;;;;;;;;;;;19.00;99.90;;;;;;5092225;28;19935;-84
2021/07/20 08:43:09;;;;;;;;;;;19.10;99.90;;;;;;5073969;28;19924;-86
2021/07/20 08:45:37;;;;;;;;;;;19.10;99.90;;;;;;5091421;28;19931;-86
2021/07/20 08:48:31;;;;;;;;;;;19.30;99.90;;;;;;5091662;28;20031;-86
2021/07/20 08:50:57;;;;;;;;;;;19.40;99.90;;;;;;5073361;28;20395;-85
2021/07/20 08:53:23;;;;;;;;;;;19.50;99.90;;;;;;5090293;28;19928;-85
2021/07/20 08:55:50;;;;;;;;;;;19.50;99.90;;;;;;5073135;28;19928;-85
2021/07/20 08:58:37;;;;;;;;;;;19.60;99.90;;;;;;5091942;28;20053;-86
2021/07/20 09:01:15;;;;;;;;;;;19.60;99.90;;;;;;5070855;28;20047;-85
2021/07/20 09:03:53;;;;;;;;;;;19.50;99.90;;;;;;5068780;28;19935;-87
2021/07/20 09:06:21;;;;;;;;;;;19.40;99.90;;;;;;5082466;28;19928;-85
2021/07/20 09:08:54;;;;;;;;;;;19.50;99.90;;;;;;5070688;28;19924;-86
2021/07/20 09:11:26;;;;;;;;;;;19.50;99.90;;;;;;5073827;28;19927;-87
2021/07/20 09:13:53;;;;;;;;;;;19.60;99.90;;;;;;5073194;28;20299;-85
2021/07/20 09:16:32;;;;;;;;;;;19.60;99.90;;;;;;5060323;28;19927;-85
2021/07/20 09:19:04;;;;;;;;;;;19.60;99.90;;;;;;5070205;28;19959;-85
2021/07/20 09:21:31;;;;;;;;;;;19.70;99.90;;;;;;5081262;28;20027;-85
2021/07/20 09:24:03;;;;;;;;;;;20.00;99.90;;;;;;5091279;28;19924;-85
2021/07/20 09:26:35;;;;;;;;;;;19.90;99.90;;;;;;5091822;28;20395;-86
2021/07/20 09:29:01;;;;;;;;;;;19.90;99.90;;;;;;5054568;28;20411;-86
2021/07/20 09:31:27;;;;;;;;;;;20.00;99.90;;;;;;5089423;28;19985;-86
2021/07/20 09:33:56;;;;;;;;;;;20.20;99.90;;;;;;5089875;28;20010;-86
2021/07/20 09:36:31;;;;;;;;;;;20.30;99.90;;;;;;5073592;28;19924;-86
2021/07/20 09:39:00;;;;;;;;;;;20.40;99.90;;;;;;5079961;28;19931;-85
2021/07/20 09:41:33;;;;;;;;;;;20.30;99.90;;;;;;5091367;28;19931;-85
2021/07/20 09:44:31;;;;;;;;;;;20.30;99.90;;;;;;5073077;28;20010;-86
2021/07/20 09:46:57;;;;;;;;;;;20.30;99.90;;;;;;5052691;28;20322;-86
2021/07/20 09:49:38;;;;;;;;;;;20.60;99.90;;;;;;5091634;28;19928;-86
2021/07/20 09:52:22;;;;;;;;;;;20.90;99.90;;;;;;5088509;28;19938;-86
2021/07/20 09:55:06;;;;;;;;;;;20.80;99.90;;;;;;5090329;28;20439;-87
2021/07/20 09:57:47;;;;;;;;;;;20.70;99.90;;;;;;5073147;28;19935;-86
2021/07/20 10:00:17;;;;;;;;;;;20.50;99.90;;;;;;5090449;28;19924;-84
2021/07/20 10:02:43;;;;;;;;;;;20.70;99.90;;;;;;5091826;28;19973;-85
2021/07/20 10:05:13;;;;;;;;;;;20.80;99.90;;;;;;5083403;28;19924;-85
2021/07/20 10:07:46;;;;;;;;;;;20.70;99.90;;;;;;5073017;28;19931;-85
2021/07/20 10:10:20;;;;;;;;;;;20.60;99.90;;;;;;5090164;28;19971;-85
2021/07/20 10:12:54;;;;;;;;;;;20.60;99.90;;;;;;5090723;28;19930;-86
2021/07/20 10:15:25;;;;;;;;;;;20.80;99.90;;;;;;5090248;28;20403;-87
2021/07/20 10:17:51;;;;;;;;;;;20.90;99.90;;;;;;5087112;28;19932;-87
2021/07/20 10:20:23;;;;;;;;;;;21.00;99.90;;;;;;5071668;28;19977;-84
2021/07/20 10:22:48;;;;;;;;;;;21.10;99.90;;;;;;5085346;28;19932;-86
2021/07/20 10:25:34;;;;;;;;;;;21.00;99.90;;;;;;5088285;28;19931;-84
2021/07/20 10:28:12;;;;;;;;;;;20.90;99.90;;;;;;5088157;28;20027;-85
2021/07/20 10:30:38;;;;;;;;;;;20.90;99.90;;;;;;5072083;28;19928;-84
2021/07/20 10:33:23;;;;;;;;;;;20.90;99.90;;;;;;5069864;28;19924;-85
2021/07/20 10:35:56;;;;;;;;;;;20.90;99.90;;;;;;5086734;28;19936;-85
2021/07/20 10:38:30;;;;;;;;;;;20.90;99.90;;;;;;5071833;28;19955;-84
2021/07/20 10:40:57;;;;;;;;;;;20.70;99.90;;;;;;5071502;28;20249;-85
2021/07/20 10:43:37;;;;;;;;;;;20.60;99.90;;;;;;5071343;28;20446;-84
2021/07/20 10:46:04;;;;;;;;;;;20.70;99.90;;;;;;5089527;28;19931;-84
2021/07/20 10:48:31;;;;;;;;;;;20.90;99.90;;;;;;5071573;28;19924;-85
2021/07/20 10:51:06;;;;;;;;;;;21.00;99.90;;;;;;5067442;28;20372;-84
2021/07/20 10:53:50;;;;;;;;;;;21.10;99.90;;;;;;5071839;28;19975;-84
2021/07/20 10:56:28;;;;;;;;;;;21.10;99.90;;;;;;5089782;28;20653;-83
2021/07/20 10:59:00;;;;;;;;;;;21.00;99.90;;;;;;5087846;28;20079;-86
2021/07/20 11:01:32;;;;;;;;;;;20.80;99.90;;;;;;5068723;28;20380;-85
2021/07/20 11:03:57;;;;;;;;;;;20.90;99.90;;;;;;5085254;28;19924;-85
2021/07/20 11:06:23;;;;;;;;;;;20.70;99.90;;;;;;5089752;28;20299;-85
2021/07/20 11:08:53;;;;;;;;;;;20.70;99.90;;;;;;5089407;28;19932;-85
2021/07/20 11:11:22;;;;;;;;;;;20.70;99.90;;;;;;5088116;28;19924;-83
2021/07/20 11:13:49;;;;;;;;;;;20.80;99.90;;;;;;5073190;28;20395;-83
2021/07/20 11:16:15;;;;;;;;;;;21.00;99.90;;;;;;5087290;28;19935;-83
2021/07/20 11:18:42;;;;;;;;;;;20.80;99.90;;;;;;5070602;28;19924;-85
2021/07/20 11:21:10;;;;;;;;;;;20.60;99.90;;;;;;5070233;28;19924;-86
2021/07/20 11:23:41;;;;;;;;;;;20.80;99.90;;;;;;5089333;28;20395;-84
2021/07/20 11:26:07;;;;;;;;;;;20.90;99.90;;;;;;5088148;28;19932;-84
2021/07/20 11:28:33;;;;;;;;;;;20.70;99.90;;;;;;5088296;28;19928;-83
2021/07/20 11:31:02;;;;;;;;;;;20.50;99.90;;;;;;5069803;28;19930;-84
2021/07/20 11:33:33;;;;;;;;;;;20.30;99.90;;;;;;5082065;28;19924;-85
2021/07/20 11:36:00;;;;;;;;;;;20.20;99.90;;;;;;5065891;28;19930;-86
2021/07/20 11:38:27;;;;;;;;;;;20.20;99.90;;;;;;5079740;28;20384;-83
2021/07/20 11:40:56;;;;;;;;;;;20.20;99.90;;;;;;5070720;28;20015;-84
2021/07/20 11:43:27;;;;;;;;;;;20.10;99.90;;;;;;5088257;28;20090;-84
2021/07/20 11:45:55;;;;;;;;;;;20.10;99.90;;;;;;5071175;28;19924;-84
2021/07/20 11:48:21;;;;;;;;;;;20.20;99.90;;;;;;5069537;28;20310;-84
2021/07/20 11:50:53;;;;;;;;;;;20.20;99.90;;;;;;5087888;28;19931;-86
2021/07/20 11:53:25;;;;;;;;;;;20.20;99.90;;;;;;5069708;28;19966;-83
2021/07/20 11:56:06;;;;;;;;;;;20.30;99.90;;;;;;5088960;28;19924;-84
2021/07/20 11:59:07;;;;;;;;;;;20.60;99.90;;;;;;5088952;28;19928;-86
2021/07/20 12:01:50;;;;;;;;;;;21.00;99.90;;;;;;5049607;28;19937;-83
2021/07/20 12:04:39;;;;;;;;;;;21.30;99.90;;;;;;5084232;28;19931;-84
2021/07/20 12:07:11;;;;;;;;;;;21.30;99.90;;;;;;5069386;28;19974;-83
2021/07/20 12:09:55;;;;;;;;;;;21.60;99.90;;;;;;5082755;28;19947;-84
2021/07/20 12:12:31;;;;;;;;;;;21.50;99.90;;;;;;5069227;28;19931;-84
2021/07/20 12:14:57;;;;;;;;;;;21.30;99.90;;;;;;5088875;28;20551;-86
2021/07/20 12:17:30;;;;;;;;;;;21.40;99.90;;;;;;5069969;28;20768;-83
2021/07/20 12:19:56;;;;;;;;;;;21.50;99.90;;;;;;5089110;28;19961;-84
2021/07/20 12:22:22;;;;;;;;;;;21.30;99.90;;;;;;5088119;28;19935;-84
2021/07/20 12:24:53;;;;;;;;;;;21.30;99.90;;;;;;5074883;28;20007;-83
2021/07/20 12:27:20;;;;;;;;;;;21.40;99.90;;;;;;5088254;28;19993;-83
2021/07/20 12:29:51;;;;;;;;;;;21.20;99.90;;;;;;5089368;28;19924;-83
2021/07/20 12:32:17;;;;;;;;;;;21.10;99.90;;;;;;5064619;28;19956;-84
2021/07/20 12:34:48;;;;;;;;;;;20.90;99.90;;;;;;5088699;28;20395;-84
2021/07/20 12:37:14;;;;;;;;;;;20.80;99.90;;;;;;5054175;28;19928;-84
2021/07/20 12:39:40;;;;;;;;;;;20.90;99.90;;;;;;5086301;28;20426;-86
2021/07/20 12:42:06;;;;;;;;;;;21.20;99.90;;;;;;5070462;28;19970;-83
2021/07/20 12:44:33;;;;;;;;;;;21.20;99.90;;;;;;5088744;28;19932;-84
2021/07/20 12:47:03;;;;;;;;;;;21.40;99.90;;;;;;5071059;28;20337;-85
2021/07/20 12:49:29;;;;;;;;;;;21.30;99.90;;;;;;5088717;28;19928;-84
2021/07/20 12:51:55;;;;;;;;;;;21.30;99.90;;;;;;5061359;28;19929;-83
2021/07/20 12:54:41;;;;;;;;;;;21.10;99.90;;;;;;5063269;28;20249;-83
2021/07/20 12:57:08;;;;;;;;;;;20.90;99.90;;;;;;5062081;28;20376;-84
2021/07/20 12:59:34;;;;;;;;;;;21.00;99.90;;;;;;5049988;28;19929;-83
2021/07/20 13:02:00;;;;;;;;;;;20.80;99.90;;;;;;5027666;28;19928;-84
2021/07/20 13:04:26;;;;;;;;;;;20.70;99.90;;;;;;5063888;28;19972;-83
2021/07/20 13:06:53;;;;;;;;;;;20.70;99.90;;;;;;5056988;28;19960;-85
2021/07/20 13:09:19;;;;;;;;;;;20.70;99.90;;;;;;5052725;28;19924;-84
2021/07/20 13:11:45;;;;;;;;;;;20.80;99.90;;;;;;5063723;28;19932;-84
2021/07/20 13:14:11;;;;;;;;;;;20.80;99.90;;;;;;5054623;28;19925;-84
2021/07/20 13:16:39;;;;;;;;;;;20.70;99.90;;;;;;5058500;28;19951;-84
2021/07/20 13:19:06;;;;;;;;;;;20.60;99.90;;;;;;5051553;28;19925;-88
2021/07/20 13:21:51;;;;;;;;;;;20.50;99.90;;;;;;5051325;28;20024;-84
2021/07/20 13:24:16;;;;;;;;;;;20.50;99.90;;;;;;5065179;28;19932;-84
2021/07/20 13:26:42;;;;;;;;;;;20.50;99.90;;;;;;5061829;28;20284;-84
2021/07/20 13:29:09;;;;;;;;;;;20.60;99.90;;;;;;5058693;28;20319;-87
2021/07/20 13:31:36;;;;;;;;;;;20.80;99.90;;;;;;5048339;28;20484;-83
2021/07/20 13:34:02;;;;;;;;;;;20.80;99.90;;;;;;5056814;28;20000;-84
2021/07/20 13:36:28;;;;;;;;;;;20.90;99.90;;;;;;5030890;28;20082;-86
2021/07/20 13:38:55;;;;;;;;;;;21.00;99.90;;;;;;5055452;28;19931;-84
2021/07/20 13:41:21;;;;;;;;;;;21.00;99.90;;;;;;5047811;28;20016;-84
2021/07/20 13:43:49;;;;;;;;;;;21.00;99.90;;;;;;5053462;28;19982;-85
2021/07/20 13:46:15;;;;;;;;;;;21.20;99.90;;;;;;5052024;28;20015;-85
2021/07/20 13:48:44;;;;;;;;;;;21.10;99.90;;;;;;5058793;28;19932;-86
2021/07/20 13:51:10;;;;;;;;;;;21.20;99.90;;;;;;5048372;28;20049;-87
2021/07/20 13:53:37;;;;;;;;;;;21.20;99.90;;;;;;5086198;28;19962;-87
2021/07/20 13:56:11;;;;;;;;;;;21.10;99.90;;;;;;5087181;28;20272;-84
2021/07/20 13:58:38;;;;;;;;;;;21.10;99.90;;;;;;5069483;28;19943;-85
2021/07/20 14:01:04;;;;;;;;;;;20.90;99.90;;;;;;5088431;28;19932;-83
2021/07/20 14:03:30;;;;;;;;;;;21.10;99.90;;;;;;5086876;28;20442;-82
2021/07/20 14:05:56;;;;;;;;;;;21.20;99.90;;;;;;5089050;28;19981;-83
2021/07/20 14:08:22;;;;;;;;;;;21.20;99.90;;;;;;5086633;28;19928;-85
2021/07/20 14:10:49;;;;;;;;;;;21.10;99.90;;;;;;5074949;28;19942;-82
2021/07/20 14:13:15;;;;;;;;;;;21.20;99.90;;;;;;5086737;28;19930;-86
2021/07/20 14:15:40;;;;;;;;;;;21.10;99.90;;;;;;5088571;28;20625;-87
2021/07/20 14:18:07;;;;;;;;;;;21.50;99.90;;;;;;5088253;28;19923;-82
2021/07/20 14:20:34;;;;;;;;;;;21.60;99.90;;;;;;5087492;28;20371;-82
2021/07/20 14:23:01;;;;;;;;;;;21.70;99.90;;;;;;5087486;28;19973;-86
2021/07/20 14:25:27;;;;;;;;;;;21.70;99.90;;;;;;5069458;28;20364;-83